Time;durP1;ratioP1;P1;durP2;ratioP2;P2;SDS_P1;SDS_P2;PMS_P1;PMS_P2;Temp;Humidity;BMP_temperature;BMP_pressure;BME280_temperature;BME280_humidity;BME280_pressure;Samples;Min_cycle;Max_cycle;Signal;HPM_P1;HPM_P2
2022/02/20 00:00:29;;;;;;;;;;;;;;;;;;2098879;28;19925;-45
2022/02/20 00:01:30;;;;;;;;;;;;;;;;;;2095925;28;19979;-46
2022/02/20 00:02:31;;;;;;;;;;;;;;;;;;2097243;28;19932;-49
2022/02/20 00:03:32;;;;;;;;;;;;;;;;;;2098992;28;19938;-51
2022/02/20 00:04:33;;;;;;;;;;;;;;;;;;2095616;28;20015;-49
2022/02/20 00:05:36;;;;;;;;;;;;;;;;;;2098867;28;19924;-49
2022/02/20 00:06:37;;;;;;;;;;;;;;;;;;2098737;28;20010;-50
2022/02/20 00:07:37;;;;;;;;;;;;;;;;;;2094418;28;19968;-48
2022/02/20 00:08:38;;;;;;;;;;;;;;;;;;2090607;28;19924;-49
2022/02/20 00:09:40;;;;;;;;;;;;;;;;;;2090547;28;19960;-49
2022/02/20 00:10:41;;;;;;;;;;;;;;;;;;2097237;28;19968;-45
2022/02/20 00:11:42;;;;;;;;;;;;;;;;;;2098893;28;19924;-45
2022/02/20 00:12:43;;;;;;;;;;;;;;;;;;2098125;28;19929;-45
2022/02/20 00:13:43;;;;;;;;;;;;;;;;;;2096186;28;19928;-44
2022/02/20 00:14:44;;;;;;;;;;;;;;;;;;2098956;28;19936;-48
2022/02/20 00:15:45;;;;;;;;;;;;;;;;;;2095427;28;20030;-51
2022/02/20 00:16:46;;;;;;;;;;;;;;;;;;2098743;28;19940;-49
2022/02/20 00:17:50;;;;;;;;;;;;;;;;;;2098748;28;20019;-49
2022/02/20 00:18:51;;;;;;;;;;;;;;;;;;2096457;28;20481;-49
2022/02/20 00:19:52;;;;;;;;;;;;;;;;;;2098810;28;20019;-49
2022/02/20 00:20:55;;;;;;;;;;;;;;;;;;2098739;28;20340;-49
2022/02/20 00:21:56;;;;;;;;;;;;;;;;;;2094077;28;19924;-49
2022/02/20 00:22:57;;;;;;;;;;;;;;;;;;2098845;28;19971;-50
2022/02/20 00:23:58;;;;;;;;;;;;;;;;;;2097937;28;20015;-49
2022/02/20 00:25:00;;;;;;;;;;;;;;;;;;2097197;28;19925;-52
2022/02/20 00:26:02;;;;;;;;;;;;;;;;;;2098668;28;19986;-49
2022/02/20 00:27:03;;;;;;;;;;;;;;;;;;2096739;28;20019;-49
2022/02/20 00:28:04;;;;;;;;;;;;;;;;;;2097665;28;20441;-44
2022/02/20 00:29:05;;;;;;;;;;;;;;;;;;2098669;28;19931;-45
2022/02/20 00:30:06;;;;;;;;;;;;;;;;;;2097431;28;19964;-45
2022/02/20 00:31:07;;;;;;;;;;;;;;;;;;2098255;28;19924;-44
2022/02/20 00:32:08;;;;;;;;;;;;;;;;;;2098676;28;20015;-45
2022/02/20 00:33:09;;;;;;;;;;;;;;;;;;2095261;28;19924;-45
2022/02/20 00:34:10;;;;;;;;;;;;;;;;;;2099066;28;20443;-50
2022/02/20 00:35:11;;;;;;;;;;;;;;;;;;2098294;28;19924;-45
2022/02/20 00:36:12;;;;;;;;;;;;;;;;;;2095138;28;20008;-45
2022/02/20 00:37:13;;;;;;;;;;;;;;;;;;2098796;28;19973;-44
2022/02/20 00:38:14;;;;;;;;;;;;;;;;;;2096584;28;20525;-44
2022/02/20 00:39:15;;;;;;;;;;;;;;;;;;2096219;28;19924;-45
2022/02/20 00:40:16;;;;;;;;;;;;;;;;;;2098910;28;19974;-48
2022/02/20 00:41:17;;;;;;;;;;;;;;;;;;2095161;28;19972;-48
2022/02/20 00:42:17;;;;;;;;;;;;;;;;;;2097224;28;19994;-49
2022/02/20 00:43:19;;;;;;;;;;;;;;;;;;2098951;28;19931;-44
2022/02/20 00:44:19;;;;;;;;;;;;;;;;;;2096574;28;20015;-44
2022/02/20 00:45:20;;;;;;;;;;;;;;;;;;2090477;28;19932;-45
2022/02/20 00:46:21;;;;;;;;;;;;;;;;;;2090318;28;19925;-44
2022/02/20 00:47:22;;;;;;;;;;;;;;;;;;2093040;28;19933;-45
2022/02/20 00:48:23;;;;;;;;;;;;;;;;;;2098777;28;19924;-44
2022/02/20 00:49:24;;;;;;;;;;;;;;;;;;2098375;28;19985;-51
2022/02/20 00:50:25;;;;;;;;;;;;;;;;;;2096788;28;20080;-48
2022/02/20 00:51:26;;;;;;;;;;;;;;;;;;2098442;28;20465;-49
2022/02/20 00:52:27;;;;;;;;;;;;;;;;;;2097607;28;19973;-49
2022/02/20 00:53:29;;;;;;;;;;;;;;;;;;2097498;28;19957;-49
2022/02/20 00:54:30;;;;;;;;;;;;;;;;;;2098979;28;19935;-45
2022/02/20 00:55:31;;;;;;;;;;;;;;;;;;2097579;28;19947;-44
2022/02/20 00:56:31;;;;;;;;;;;;;;;;;;2091055;28;19929;-44
2022/02/20 00:57:32;;;;;;;;;;;;;;;;;;2090953;28;19925;-44
2022/02/20 00:58:33;;;;;;;;;;;;;;;;;;2093260;28;19925;-44
2022/02/20 00:59:34;;;;;;;;;;;;;;;;;;2098909;28;20007;-49
2022/02/20 01:00:35;;;;;;;;;;;;;;;;;;2098682;28;19924;-50
2022/02/20 01:01:36;;;;;;;;;;;;;;;;;;2096256;28;19925;-49
2022/02/20 01:02:37;;;;;;;;;;;;;;;;;;2098460;28;19931;-48
2022/02/20 01:03:38;;;;;;;;;;;;;;;;;;2096557;28;19963;-52
2022/02/20 01:04:39;;;;;;;;;;;;;;;;;;2096247;28;19974;-49
2022/02/20 01:05:41;;;;;;;;;;;;;;;;;;2098443;28;19925;-48
2022/02/20 01:06:42;;;;;;;;;;;;;;;;;;2095521;28;19925;-48
2022/02/20 01:07:43;;;;;;;;;;;;;;;;;;2097015;28;20004;-51
2022/02/20 01:08:44;;;;;;;;;;;;;;;;;;2098613;28;19928;-51
2022/02/20 01:09:45;;;;;;;;;;;;;;;;;;2096824;28;19960;-48
2022/02/20 01:10:49;;;;;;;;;;;;;;;;;;2090001;28;20388;-49
2022/02/20 01:11:50;;;;;;;;;;;;;;;;;;2090159;28;20020;-48
2022/02/20 01:12:51;;;;;;;;;;;;;;;;;;2095484;28;19932;-50
2022/02/20 01:13:52;;;;;;;;;;;;;;;;;;2098452;28;19924;-49
2022/02/20 01:14:53;;;;;;;;;;;;;;;;;;2097854;28;19950;-49
2022/02/20 01:15:54;;;;;;;;;;;;;;;;;;2096558;28;19924;-49
2022/02/20 01:16:55;;;;;;;;;;;;;;;;;;2098343;28;19924;-48
2022/02/20 01:17:56;;;;;;;;;;;;;;;;;;2096404;28;19978;-49
2022/02/20 01:18:57;;;;;;;;;;;;;;;;;;2097086;28;19932;-49
2022/02/20 01:19:57;;;;;;;;;;;;;;;;;;2098573;28;19932;-50
2022/02/20 01:20:58;;;;;;;;;;;;;;;;;;2094939;28;20343;-52
2022/02/20 01:21:59;;;;;;;;;;;;;;;;;;2098516;28;19947;-50
2022/02/20 01:23:00;;;;;;;;;;;;;;;;;;2098013;28;19925;-49
2022/02/20 01:24:01;;;;;;;;;;;;;;;;;;2096289;28;19968;-44
2022/02/20 01:25:02;;;;;;;;;;;;;;;;;;2098239;28;19924;-45
2022/02/20 01:26:03;;;;;;;;;;;;;;;;;;2098266;28;20449;-44
2022/02/20 01:27:04;;;;;;;;;;;;;;;;;;2096199;28;19925;-45
2022/02/20 01:28:05;;;;;;;;;;;;;;;;;;2098352;28;19952;-44
2022/02/20 01:29:06;;;;;;;;;;;;;;;;;;2097989;28;19931;-48
2022/02/20 01:30:07;;;;;;;;;;;;;;;;;;2096499;28;20010;-51
2022/02/20 01:31:08;;;;;;;;;;;;;;;;;;2098658;28;19966;-45
2022/02/20 01:32:09;;;;;;;;;;;;;;;;;;2097634;28;20019;-49
2022/02/20 01:33:10;;;;;;;;;;;;;;;;;;2091875;28;20039;-44
2022/02/20 01:34:11;;;;;;;;;;;;;;;;;;2090005;28;20043;-44
2022/02/20 01:35:11;;;;;;;;;;;;;;;;;;2091426;28;19932;-45
2022/02/20 01:36:12;;;;;;;;;;;;;;;;;;2097237;28;20356;-45
2022/02/20 01:37:13;;;;;;;;;;;;;;;;;;2098283;28;20375;-44
2022/02/20 01:38:15;;;;;;;;;;;;;;;;;;2094818;28;19933;-45
2022/02/20 01:39:16;;;;;;;;;;;;;;;;;;2098221;28;20043;-44
2022/02/20 01:40:17;;;;;;;;;;;;;;;;;;2098238;28;19925;-44
2022/02/20 01:41:21;;;;;;;;;;;;;;;;;;2096061;28;19932;-45
2022/02/20 01:42:22;;;;;;;;;;;;;;;;;;2098170;28;20010;-45
2022/02/20 01:43:22;;;;;;;;;;;;;;;;;;2097625;28;19925;-49
2022/02/20 01:44:23;;;;;;;;;;;;;;;;;;2095886;28;20017;-48
2022/02/20 01:45:24;;;;;;;;;;;;;;;;;;2098263;28;20385;-48
2022/02/20 01:46:25;;;;;;;;;;;;;;;;;;2096322;28;19924;-44
2022/02/20 01:47:28;;;;;;;;;;;;;;;;;;2098114;28;20360;-49
2022/02/20 01:48:35;;;;;;;;;;;;;;;;;;2098627;28;20236;-44
2022/02/20 01:49:35;;;;;;;;;;;;;;;;;;2096065;28;20408;-45
2022/02/20 01:50:36;;;;;;;;;;;;;;;;;;2098131;28;19928;-44
2022/02/20 01:51:37;;;;;;;;;;;;;;;;;;2097959;28;20285;-44
2022/02/20 01:52:38;;;;;;;;;;;;;;;;;;2094686;28;19925;-44
2022/02/20 01:53:39;;;;;;;;;;;;;;;;;;2097734;28;19994;-44
2022/02/20 01:54:40;;;;;;;;;;;;;;;;;;2097374;28;19924;-44
2022/02/20 01:55:41;;;;;;;;;;;;;;;;;;2093492;28;20275;-44
2022/02/20 01:56:42;;;;;;;;;;;;;;;;;;2089931;28;20313;-44
2022/02/20 01:57:43;;;;;;;;;;;;;;;;;;2091468;28;19967;-44
2022/02/20 01:58:43;;;;;;;;;;;;;;;;;;2096786;28;20050;-45
2022/02/20 01:59:44;;;;;;;;;;;;;;;;;;2098380;28;20328;-49
2022/02/20 02:00:45;;;;;;;;;;;;;;;;;;2096714;28;20050;-50
2022/02/20 02:01:46;;;;;;;;;;;;;;;;;;2089847;28;20015;-44
2022/02/20 02:02:47;;;;;;;;;;;;;;;;;;2089863;28;19932;-45
2022/02/20 02:03:48;;;;;;;;;;;;;;;;;;2093332;28;19924;-46
2022/02/20 02:04:48;;;;;;;;;;;;;;;;;;2098418;28;19996;-45
2022/02/20 02:05:49;;;;;;;;;;;;;;;;;;2095920;28;19925;-44
2022/02/20 02:06:50;;;;;;;;;;;;;;;;;;2090646;28;19929;-44
2022/02/20 02:07:51;;;;;;;;;;;;;;;;;;2089742;28;19975;-45
2022/02/20 02:08:52;;;;;;;;;;;;;;;;;;2092013;28;19932;-48
2022/02/20 02:09:53;;;;;;;;;;;;;;;;;;2090109;28;19925;-50
2022/02/20 02:10:54;;;;;;;;;;;;;;;;;;2091785;28;19983;-49
2022/02/20 02:11:55;;;;;;;;;;;;;;;;;;2094667;28;20317;-49
2022/02/20 02:12:56;;;;;;;;;;;;;;;;;;2098233;28;19975;-49
2022/02/20 02:13:56;;;;;;;;;;;;;;;;;;2098240;28;19931;-46
2022/02/20 02:14:57;;;;;;;;;;;;;;;;;;2095833;28;19931;-45
2022/02/20 02:15:59;;;;;;;;;;;;;;;;;;2097975;28;19946;-45
2022/02/20 02:17:00;;;;;;;;;;;;;;;;;;2096327;28;19932;-44
2022/02/20 02:18:00;;;;;;;;;;;;;;;;;;2096049;28;19928;-44
2022/02/20 02:19:01;;;;;;;;;;;;;;;;;;2098148;28;19924;-45
2022/02/20 02:20:02;;;;;;;;;;;;;;;;;;2097269;28;20469;-44
2022/02/20 02:21:03;;;;;;;;;;;;;;;;;;2091280;28;19932;-45
2022/02/20 02:22:04;;;;;;;;;;;;;;;;;;2089658;28;19932;-44
2022/02/20 02:23:05;;;;;;;;;;;;;;;;;;2092184;28;19931;-45
2022/02/20 02:24:05;;;;;;;;;;;;;;;;;;2097822;28;19948;-50
2022/02/20 02:25:06;;;;;;;;;;;;;;;;;;2098555;28;19924;-44
2022/02/20 02:26:08;;;;;;;;;;;;;;;;;;2095722;28;20336;-45
2022/02/20 02:27:09;;;;;;;;;;;;;;;;;;2097956;28;20090;-44
2022/02/20 02:28:10;;;;;;;;;;;;;;;;;;2097994;28;20141;-44
2022/02/20 02:29:10;;;;;;;;;;;;;;;;;;2095801;28;19932;-44
2022/02/20 02:30:11;;;;;;;;;;;;;;;;;;2098050;28;20446;-45
2022/02/20 02:31:12;;;;;;;;;;;;;;;;;;2097065;28;19951;-45
2022/02/20 02:32:13;;;;;;;;;;;;;;;;;;2096400;28;20356;-45
2022/02/20 02:33:14;;;;;;;;;;;;;;;;;;2097854;28;19925;-44
2022/02/20 02:34:15;;;;;;;;;;;;;;;;;;2095125;28;19999;-45
2022/02/20 02:35:16;;;;;;;;;;;;;;;;;;2096378;28;19924;-44
2022/02/20 02:36:17;;;;;;;;;;;;;;;;;;2098009;28;20405;-45
2022/02/20 02:37:19;;;;;;;;;;;;;;;;;;2095805;28;19932;-45
2022/02/20 02:38:25;;;;;;;;;;;;;;;;;;2097311;28;19964;-44
2022/02/20 02:39:26;;;;;;;;;;;;;;;;;;2097974;28;20019;-44
2022/02/20 02:40:27;;;;;;;;;;;;;;;;;;2096041;28;19933;-44
2022/02/20 02:41:29;;;;;;;;;;;;;;;;;;2097906;28;19928;-44
2022/02/20 02:42:29;;;;;;;;;;;;;;;;;;2097374;28;20349;-45
2022/02/20 02:43:30;;;;;;;;;;;;;;;;;;2096109;28;19935;-44
2022/02/20 02:44:31;;;;;;;;;;;;;;;;;;2098219;28;19928;-49
2022/02/20 02:45:32;;;;;;;;;;;;;;;;;;2096840;28;20048;-48
2022/02/20 02:46:33;;;;;;;;;;;;;;;;;;2096726;28;20369;-49
2022/02/20 02:47:34;;;;;;;;;;;;;;;;;;2097849;28;19931;-48
2022/02/20 02:48:35;;;;;;;;;;;;;;;;;;2093509;28;19958;-48
2022/02/20 02:49:36;;;;;;;;;;;;;;;;;;2097949;28;19938;-45
2022/02/20 02:50:36;;;;;;;;;;;;;;;;;;2098091;28;19967;-44
2022/02/20 02:51:37;;;;;;;;;;;;;;;;;;2095658;28;19924;-44
2022/02/20 02:52:38;;;;;;;;;;;;;;;;;;2097959;28;20016;-44
2022/02/20 02:53:39;;;;;;;;;;;;;;;;;;2098045;28;19977;-45
2022/02/20 02:54:40;;;;;;;;;;;;;;;;;;2095547;28;19925;-44
2022/02/20 02:55:41;;;;;;;;;;;;;;;;;;2097755;28;19928;-44
2022/02/20 02:56:41;;;;;;;;;;;;;;;;;;2097441;28;19924;-45
2022/02/20 02:57:42;;;;;;;;;;;;;;;;;;2095318;28;19971;-44
2022/02/20 02:58:43;;;;;;;;;;;;;;;;;;2097784;28;19974;-45
2022/02/20 02:59:44;;;;;;;;;;;;;;;;;;2096501;28;19928;-45
2022/02/20 03:00:45;;;;;;;;;;;;;;;;;;2089680;28;20613;-44
2022/02/20 03:01:46;;;;;;;;;;;;;;;;;;2097361;28;19947;-45
2022/02/20 03:02:46;;;;;;;;;;;;;;;;;;2095579;28;19924;-45
2022/02/20 03:03:47;;;;;;;;;;;;;;;;;;2097753;28;20019;-45
2022/02/20 03:04:48;;;;;;;;;;;;;;;;;;2096950;28;19925;-45
2022/02/20 03:05:49;;;;;;;;;;;;;;;;;;2096076;28;19924;-45
2022/02/20 03:06:50;;;;;;;;;;;;;;;;;;2099349;28;19936;-45
2022/02/20 03:07:51;;;;;;;;;;;;;;;;;;2098444;28;19928;-45
2022/02/20 03:08:51;;;;;;;;;;;;;;;;;;2096692;28;20385;-44
2022/02/20 03:09:52;;;;;;;;;;;;;;;;;;2099687;28;19924;-44
2022/02/20 03:10:53;;;;;;;;;;;;;;;;;;2095780;28;20365;-44
2022/02/20 03:11:54;;;;;;;;;;;;;;;;;;2099264;28;19925;-44
2022/02/20 03:12:55;;;;;;;;;;;;;;;;;;2099570;28;19975;-48
2022/02/20 03:13:56;;;;;;;;;;;;;;;;;;2097307;28;20008;-49
2022/02/20 03:14:56;;;;;;;;;;;;;;;;;;2099391;28;20023;-50
2022/02/20 03:15:58;;;;;;;;;;;;;;;;;;2099221;28;20004;-51
2022/02/20 03:16:59;;;;;;;;;;;;;;;;;;2095806;28;19996;-50
2022/02/20 03:18:00;;;;;;;;;;;;;;;;;;2099213;28;20285;-49
2022/02/20 03:19:00;;;;;;;;;;;;;;;;;;2098902;28;20055;-48
2022/02/20 03:20:01;;;;;;;;;;;;;;;;;;2097401;28;19928;-48
2022/02/20 03:21:02;;;;;;;;;;;;;;;;;;2099250;28;19924;-49
2022/02/20 03:22:03;;;;;;;;;;;;;;;;;;2098554;28;20304;-49
2022/02/20 03:23:04;;;;;;;;;;;;;;;;;;2096649;28;19985;-49
2022/02/20 03:24:06;;;;;;;;;;;;;;;;;;2099297;28;19924;-49
2022/02/20 03:25:07;;;;;;;;;;;;;;;;;;2097064;28;19939;-52
2022/02/20 03:26:08;;;;;;;;;;;;;;;;;;2098698;28;19962;-49
2022/02/20 03:27:10;;;;;;;;;;;;;;;;;;2099393;28;19931;-49
2022/02/20 03:28:13;;;;;;;;;;;;;;;;;;2096823;28;20431;-49
2022/02/20 03:29:14;;;;;;;;;;;;;;;;;;2098997;28;20361;-49
2022/02/20 03:30:15;;;;;;;;;;;;;;;;;;2099339;28;19931;-49
2022/02/20 03:31:16;;;;;;;;;;;;;;;;;;2095619;28;19936;-49
2022/02/20 03:32:17;;;;;;;;;;;;;;;;;;2099180;28;19982;-49
2022/02/20 03:33:18;;;;;;;;;;;;;;;;;;2098552;28;19966;-45
2022/02/20 03:34:19;;;;;;;;;;;;;;;;;;2097941;28;20011;-46
2022/02/20 03:35:20;;;;;;;;;;;;;;;;;;2099212;28;19931;-44
2022/02/20 03:36:21;;;;;;;;;;;;;;;;;;2095974;28;19941;-44
2022/02/20 03:37:22;;;;;;;;;;;;;;;;;;2097922;28;19933;-45
2022/02/20 03:38:22;;;;;;;;;;;;;;;;;;2099065;28;20293;-45
2022/02/20 03:39:23;;;;;;;;;;;;;;;;;;2097300;28;19931;-49
2022/02/20 03:40:24;;;;;;;;;;;;;;;;;;2099170;28;20019;-49
2022/02/20 03:41:25;;;;;;;;;;;;;;;;;;2099090;28;20024;-50
2022/02/20 03:42:26;;;;;;;;;;;;;;;;;;2096806;28;20019;-49
2022/02/20 03:43:27;;;;;;;;;;;;;;;;;;2099127;28;19924;-52
2022/02/20 03:44:29;;;;;;;;;;;;;;;;;;2098272;28;19928;-49
2022/02/20 03:45:30;;;;;;;;;;;;;;;;;;2095416;28;19925;-45
2022/02/20 03:46:31;;;;;;;;;;;;;;;;;;2099112;28;19972;-45
2022/02/20 03:47:32;;;;;;;;;;;;;;;;;;2098177;28;20034;-45
2022/02/20 03:48:33;;;;;;;;;;;;;;;;;;2093093;28;19932;-49
2022/02/20 03:49:34;;;;;;;;;;;;;;;;;;2090903;28;19925;-49
2022/02/20 03:50:35;;;;;;;;;;;;;;;;;;2093634;28;19932;-49
2022/02/20 03:51:35;;;;;;;;;;;;;;;;;;2097560;28;19998;-48
2022/02/20 03:52:36;;;;;;;;;;;;;;;;;;2099141;28;19925;-45
2022/02/20 03:53:37;;;;;;;;;;;;;;;;;;2096951;28;19929;-45
2022/02/20 03:54:38;;;;;;;;;;;;;;;;;;2098979;28;19931;-45
2022/02/20 03:55:39;;;;;;;;;;;;;;;;;;2099263;28;20262;-49
2022/02/20 03:56:40;;;;;;;;;;;;;;;;;;2096678;28;20297;-49
2022/02/20 03:57:41;;;;;;;;;;;;;;;;;;2098996;28;20058;-51
2022/02/20 03:58:42;;;;;;;;;;;;;;;;;;2097548;28;20003;-48
2022/02/20 03:59:43;;;;;;;;;;;;;;;;;;2096706;28;20011;-48
2022/02/20 04:00:44;;;;;;;;;;;;;;;;;;2098899;28;19974;-49
2022/02/20 04:01:45;;;;;;;;;;;;;;;;;;2097955;28;19982;-49
2022/02/20 04:02:46;;;;;;;;;;;;;;;;;;2097782;28;20439;-44
2022/02/20 04:03:46;;;;;;;;;;;;;;;;;;2098794;28;20289;-45
2022/02/20 04:04:47;;;;;;;;;;;;;;;;;;2096813;28;20258;-44
2022/02/20 04:05:48;;;;;;;;;;;;;;;;;;2098686;28;19971;-45
2022/02/20 04:06:51;;;;;;;;;;;;;;;;;;2098875;28;19932;-45
2022/02/20 04:07:52;;;;;;;;;;;;;;;;;;2094523;28;20019;-44
2022/02/20 04:08:53;;;;;;;;;;;;;;;;;;2098845;28;19924;-45
2022/02/20 04:09:54;;;;;;;;;;;;;;;;;;2098852;28;19924;-44
2022/02/20 04:10:54;;;;;;;;;;;;;;;;;;2096820;28;20271;-50
2022/02/20 04:11:58;;;;;;;;;;;;;;;;;;2098995;28;19931;-45
2022/02/20 04:12:59;;;;;;;;;;;;;;;;;;2098244;28;20039;-45
2022/02/20 04:14:00;;;;;;;;;;;;;;;;;;2097401;28;19983;-45
2022/02/20 04:15:01;;;;;;;;;;;;;;;;;;2098754;28;19971;-45
2022/02/20 04:16:02;;;;;;;;;;;;;;;;;;2096642;28;19928;-44
2022/02/20 04:17:03;;;;;;;;;;;;;;;;;;2098413;28;19924;-44
2022/02/20 04:18:04;;;;;;;;;;;;;;;;;;2098740;28;20023;-44
2022/02/20 04:19:05;;;;;;;;;;;;;;;;;;2097321;28;19940;-49
2022/02/20 04:20:05;;;;;;;;;;;;;;;;;;2090424;28;20285;-49
2022/02/20 04:21:06;;;;;;;;;;;;;;;;;;2090562;28;19932;-45
2022/02/20 04:22:07;;;;;;;;;;;;;;;;;;2095282;28;20434;-44
2022/02/20 04:23:08;;;;;;;;;;;;;;;;;;2098628;28;19931;-44
2022/02/20 04:24:09;;;;;;;;;;;;;;;;;;2098423;28;19968;-50
2022/02/20 04:25:10;;;;;;;;;;;;;;;;;;2093057;28;20390;-48
2022/02/20 04:26:11;;;;;;;;;;;;;;;;;;2090778;28;19925;-45
2022/02/20 04:27:12;;;;;;;;;;;;;;;;;;2092343;28;19935;-48
2022/02/20 04:28:12;;;;;;;;;;;;;;;;;;2096241;28;19925;-48
2022/02/20 04:29:14;;;;;;;;;;;;;;;;;;2098736;28;19924;-51
2022/02/20 04:30:16;;;;;;;;;;;;;;;;;;2096369;28;19925;-48
2022/02/20 04:31:18;;;;;;;;;;;;;;;;;;2097455;28;19999;-49
2022/02/20 04:32:19;;;;;;;;;;;;;;;;;;2098714;28;19924;-49
2022/02/20 04:33:19;;;;;;;;;;;;;;;;;;2095623;28;20037;-44
2022/02/20 04:34:20;;;;;;;;;;;;;;;;;;2098771;28;20386;-44
2022/02/20 04:35:21;;;;;;;;;;;;;;;;;;2098951;28;20434;-50
2022/02/20 04:36:22;;;;;;;;;;;;;;;;;;2095844;28;19929;-48
2022/02/20 04:37:23;;;;;;;;;;;;;;;;;;2090316;28;19925;-49
2022/02/20 04:38:24;;;;;;;;;;;;;;;;;;2090966;28;19931;-48
2022/02/20 04:39:25;;;;;;;;;;;;;;;;;;2097025;28;19925;-49
2022/02/20 04:40:26;;;;;;;;;;;;;;;;;;2098498;28;19924;-50
2022/02/20 04:41:27;;;;;;;;;;;;;;;;;;2097539;28;20027;-48
2022/02/20 04:42:28;;;;;;;;;;;;;;;;;;2097863;28;19924;-51
2022/02/20 04:43:29;;;;;;;;;;;;;;;;;;2098552;28;19935;-48
2022/02/20 04:44:30;;;;;;;;;;;;;;;;;;2096605;28;20007;-50
2022/02/20 04:45:31;;;;;;;;;;;;;;;;;;2097739;28;20397;-49
2022/02/20 04:46:35;;;;;;;;;;;;;;;;;;2098653;28;19940;-50
2022/02/20 04:47:36;;;;;;;;;;;;;;;;;;2094031;28;19983;-49
2022/02/20 04:48:36;;;;;;;;;;;;;;;;;;2098685;28;19967;-49
2022/02/20 04:49:37;;;;;;;;;;;;;;;;;;2098413;28;19925;-44
2022/02/20 04:50:38;;;;;;;;;;;;;;;;;;2096760;28;19963;-44
2022/02/20 04:51:39;;;;;;;;;;;;;;;;;;2098629;28;20007;-44
2022/02/20 04:52:40;;;;;;;;;;;;;;;;;;2097753;28;19994;-44
2022/02/20 04:53:41;;;;;;;;;;;;;;;;;;2096221;28;20023;-51
2022/02/20 04:54:42;;;;;;;;;;;;;;;;;;2098618;28;19980;-50
2022/02/20 04:55:43;;;;;;;;;;;;;;;;;;2097757;28;19928;-45
2022/02/20 04:56:43;;;;;;;;;;;;;;;;;;2097209;28;19924;-44
2022/02/20 04:57:44;;;;;;;;;;;;;;;;;;2098531;28;20409;-45
2022/02/20 04:58:45;;;;;;;;;;;;;;;;;;2094140;28;20018;-45
2022/02/20 04:59:46;;;;;;;;;;;;;;;;;;2098406;28;20006;-45
2022/02/20 05:00:47;;;;;;;;;;;;;;;;;;2098532;28;20293;-45
2022/02/20 05:01:48;;;;;;;;;;;;;;;;;;2096060;28;19924;-44
2022/02/20 05:02:49;;;;;;;;;;;;;;;;;;2098472;28;20296;-45
2022/02/20 05:03:50;;;;;;;;;;;;;;;;;;2097955;28;19925;-43
2022/02/20 05:04:50;;;;;;;;;;;;;;;;;;2096637;28;19932;-45
2022/02/20 05:05:51;;;;;;;;;;;;;;;;;;2098696;28;19967;-49
2022/02/20 05:06:52;;;;;;;;;;;;;;;;;;2097985;28;20404;-45
2022/02/20 05:07:53;;;;;;;;;;;;;;;;;;2096002;28;19925;-44
2022/02/20 05:08:57;;;;;;;;;;;;;;;;;;2098691;28;19925;-44
2022/02/20 05:09:58;;;;;;;;;;;;;;;;;;2096235;28;20344;-49
2022/02/20 05:10:58;;;;;;;;;;;;;;;;;;2090205;28;19968;-49
2022/02/20 05:11:59;;;;;;;;;;;;;;;;;;2090143;28;20377;-49
2022/02/20 05:13:00;;;;;;;;;;;;;;;;;;2092806;28;19963;-50
2022/02/20 05:14:02;;;;;;;;;;;;;;;;;;2098550;28;20377;-48
2022/02/20 05:15:03;;;;;;;;;;;;;;;;;;2098462;28;20058;-49
2022/02/20 05:16:04;;;;;;;;;;;;;;;;;;2096011;28;20031;-49
2022/02/20 05:17:05;;;;;;;;;;;;;;;;;;2098507;28;19925;-49
2022/02/20 05:18:06;;;;;;;;;;;;;;;;;;2096719;28;19959;-49
2022/02/20 05:19:07;;;;;;;;;;;;;;;;;;2096208;28;19947;-45
2022/02/20 05:20:08;;;;;;;;;;;;;;;;;;2098426;28;19978;-45
2022/02/20 05:21:09;;;;;;;;;;;;;;;;;;2097639;28;19967;-45
2022/02/20 05:22:10;;;;;;;;;;;;;;;;;;2091258;28;19930;-45
2022/02/20 05:23:10;;;;;;;;;;;;;;;;;;2089984;28;19924;-44
2022/02/20 05:24:11;;;;;;;;;;;;;;;;;;2091393;28;19928;-44
2022/02/20 05:25:12;;;;;;;;;;;;;;;;;;2098283;28;20355;-44
2022/02/20 05:26:13;;;;;;;;;;;;;;;;;;2098258;28;19960;-44
2022/02/20 05:27:14;;;;;;;;;;;;;;;;;;2096253;28;19955;-44
2022/02/20 05:28:15;;;;;;;;;;;;;;;;;;2097494;28;20171;-44
2022/02/20 05:29:16;;;;;;;;;;;;;;;;;;2098315;28;19932;-44
2022/02/20 05:30:19;;;;;;;;;;;;;;;;;;2096603;28;19926;-44
2022/02/20 05:31:20;;;;;;;;;;;;;;;;;;2098519;28;20368;-50
2022/02/20 05:32:23;;;;;;;;;;;;;;;;;;2097660;28;19928;-48
2022/02/20 05:33:24;;;;;;;;;;;;;;;;;;2095631;28;19983;-49
2022/02/20 05:34:25;;;;;;;;;;;;;;;;;;2098434;28;19968;-49
2022/02/20 05:35:26;;;;;;;;;;;;;;;;;;2097355;28;20009;-48
2022/02/20 05:36:27;;;;;;;;;;;;;;;;;;2095940;28;19954;-48
2022/02/20 05:37:28;;;;;;;;;;;;;;;;;;2098488;28;20227;-48
2022/02/20 05:38:29;;;;;;;;;;;;;;;;;;2096330;28;19929;-51
2022/02/20 05:39:30;;;;;;;;;;;;;;;;;;2098343;28;20015;-48
2022/02/20 05:40:31;;;;;;;;;;;;;;;;;;2098492;28;19976;-50
2022/02/20 05:41:32;;;;;;;;;;;;;;;;;;2096138;28;20015;-44
2022/02/20 05:42:33;;;;;;;;;;;;;;;;;;2098588;28;19924;-50
2022/02/20 05:43:34;;;;;;;;;;;;;;;;;;2097755;28;19977;-50
2022/02/20 05:44:34;;;;;;;;;;;;;;;;;;2096403;28;19986;-48
2022/02/20 05:45:35;;;;;;;;;;;;;;;;;;2098540;28;19932;-44
2022/02/20 05:46:36;;;;;;;;;;;;;;;;;;2097334;28;19972;-45
2022/02/20 05:47:37;;;;;;;;;;;;;;;;;;2097010;28;20272;-44
2022/02/20 05:48:38;;;;;;;;;;;;;;;;;;2098224;28;20400;-44
2022/02/20 05:49:39;;;;;;;;;;;;;;;;;;2095431;28;19931;-44
2022/02/20 05:50:40;;;;;;;;;;;;;;;;;;2097778;28;19978;-45
2022/02/20 05:51:41;;;;;;;;;;;;;;;;;;2098359;28;20317;-44
2022/02/20 05:52:42;;;;;;;;;;;;;;;;;;2095999;28;19924;-45
2022/02/20 05:53:43;;;;;;;;;;;;;;;;;;2098613;28;20427;-49
2022/02/20 05:54:44;;;;;;;;;;;;;;;;;;2098102;28;20059;-49
2022/02/20 05:55:45;;;;;;;;;;;;;;;;;;2095966;28;19944;-44
2022/02/20 05:56:46;;;;;;;;;;;;;;;;;;2098583;28;19924;-49
2022/02/20 05:57:47;;;;;;;;;;;;;;;;;;2097430;28;19978;-51
2022/02/20 05:58:47;;;;;;;;;;;;;;;;;;2095796;28;19931;-51
2022/02/20 05:59:48;;;;;;;;;;;;;;;;;;2098214;28;20381;-49
2022/02/20 06:00:49;;;;;;;;;;;;;;;;;;2095913;28;19928;-48
2022/02/20 06:01:50;;;;;;;;;;;;;;;;;;2096653;28;20328;-48
2022/02/20 06:02:51;;;;;;;;;;;;;;;;;;2098049;28;19928;-49
2022/02/20 06:03:52;;;;;;;;;;;;;;;;;;2096946;28;20388;-48
2022/02/20 06:04:53;;;;;;;;;;;;;;;;;;2097161;28;19941;-48
2022/02/20 06:05:54;;;;;;;;;;;;;;;;;;2098118;28;19925;-49
2022/02/20 06:06:55;;;;;;;;;;;;;;;;;;2095860;28;19924;-49
2022/02/20 06:07:56;;;;;;;;;;;;;;;;;;2098256;28;20377;-44
2022/02/20 06:08:56;;;;;;;;;;;;;;;;;;2097775;28;19924;-44
2022/02/20 06:09:57;;;;;;;;;;;;;;;;;;2095010;28;19932;-44
2022/02/20 06:10:58;;;;;;;;;;;;;;;;;;2098100;28;19932;-44
2022/02/20 06:11:59;;;;;;;;;;;;;;;;;;2097305;28;19931;-44
2022/02/20 06:13:00;;;;;;;;;;;;;;;;;;2096395;28;19924;-44
2022/02/20 06:14:01;;;;;;;;;;;;;;;;;;2098056;28;19925;-45
2022/02/20 06:15:01;;;;;;;;;;;;;;;;;;2094981;28;19924;-44
2022/02/20 06:16:03;;;;;;;;;;;;;;;;;;2096808;28;19973;-49
2022/02/20 06:17:04;;;;;;;;;;;;;;;;;;2098207;28;20003;-48
2022/02/20 06:18:05;;;;;;;;;;;;;;;;;;2095227;28;19975;-50
2022/02/20 06:19:05;;;;;;;;;;;;;;;;;;2089860;28;20023;-50
2022/02/20 06:20:08;;;;;;;;;;;;;;;;;;2089737;28;19932;-49
2022/02/20 06:21:09;;;;;;;;;;;;;;;;;;2093376;28;20004;-49
2022/02/20 06:22:10;;;;;;;;;;;;;;;;;;2098187;28;19971;-45
2022/02/20 06:23:12;;;;;;;;;;;;;;;;;;2097720;28;19968;-48
2022/02/20 06:24:16;;;;;;;;;;;;;;;;;;2096240;28;19924;-49
2022/02/20 06:25:17;;;;;;;;;;;;;;;;;;2098224;28;20293;-49
2022/02/20 06:26:18;;;;;;;;;;;;;;;;;;2097065;28;20293;-50
2022/02/20 06:27:19;;;;;;;;;;;;;;;;;;2096595;28;19924;-48
2022/02/20 06:28:40;;;;;;;;;;;;;;;;;;2097862;28;20378;-50
2022/02/20 06:29:41;;;;;;;;;;;;;;;;;;2094385;28;19955;-48
2022/02/20 06:30:41;;;;;;;;;;;;;;;;;;2098024;28;20313;-48
2022/02/20 06:31:42;;;;;;;;;;;;;;;;;;2096793;28;19974;-49
2022/02/20 06:32:43;;;;;;;;;;;;;;;;;;2095790;28;20350;-48
2022/02/20 06:33:47;;;;;;;;;;;;;;;;;;2097890;28;19947;-51
2022/02/20 06:34:48;;;;;;;;;;;;;;;;;;2097333;28;19928;-49
2022/02/20 06:35:49;;;;;;;;;;;;;;;;;;2096375;28;19931;-49
2022/02/20 06:36:50;;;;;;;;;;;;;;;;;;2097908;28;20023;-48
2022/02/20 06:37:52;;;;;;;;;;;;;;;;;;2096049;28;19941;-52
2022/02/20 06:38:52;;;;;;;;;;;;;;;;;;2097863;28;20403;-49
2022/02/20 06:39:53;;;;;;;;;;;;;;;;;;2098046;28;19925;-49
2022/02/20 06:40:54;;;;;;;;;;;;;;;;;;2095011;28;19925;-45
2022/02/20 06:41:55;;;;;;;;;;;;;;;;;;2089605;28;19972;-46
2022/02/20 06:42:56;;;;;;;;;;;;;;;;;;2089853;28;19925;-45
2022/02/20 06:43:57;;;;;;;;;;;;;;;;;;2095478;28;20285;-44
2022/02/20 06:44:58;;;;;;;;;;;;;;;;;;2097901;28;19925;-45
2022/02/20 06:46:00;;;;;;;;;;;;;;;;;;2095532;28;19925;-44
2022/02/20 06:47:00;;;;;;;;;;;;;;;;;;2095596;28;19925;-45
2022/02/20 06:48:01;;;;;;;;;;;;;;;;;;2097878;28;19956;-44
2022/02/20 06:49:02;;;;;;;;;;;;;;;;;;2097547;28;20015;-45
2022/02/20 06:50:03;;;;;;;;;;;;;;;;;;2095722;28;19924;-48
2022/02/20 06:51:04;;;;;;;;;;;;;;;;;;2097842;28;19968;-51
2022/02/20 06:52:05;;;;;;;;;;;;;;;;;;2096190;28;20370;-49
2022/02/20 06:53:06;;;;;;;;;;;;;;;;;;2089522;28;19974;-50
2022/02/20 06:54:07;;;;;;;;;;;;;;;;;;2089579;28;20372;-49
2022/02/20 06:55:10;;;;;;;;;;;;;;;;;;2094686;28;19925;-51
2022/02/20 06:56:11;;;;;;;;;;;;;;;;;;2098019;28;20305;-44
2022/02/20 06:57:12;;;;;;;;;;;;;;;;;;2097436;28;19960;-45